createdAt,value
2023-04-01T00:05:51.122Z,86
2023-04-01T00:15:57.293Z,86
2023-04-01T00:26:02.750Z,84
2023-04-01T00:36:08.268Z,84
2023-04-01T00:46:13.483Z,84
2023-04-01T00:56:18.317Z,84
2023-04-01T01:06:23.666Z,84
2023-04-01T01:16:29.194Z,84
2023-04-01T01:26:34.595Z,86
2023-04-01T01:36:39.895Z,86
2023-04-01T01:46:45.184Z,86
2023-04-01T01:56:50.735Z,84
2023-04-01T02:06:56.136Z,84
2023-04-01T02:17:01.561Z,84
2023-04-01T02:27:06.915Z,86
2023-04-01T02:37:12.364Z,86
2023-04-01T02:47:17.701Z,84
2023-04-01T02:57:22.993Z,88
2023-04-01T03:07:28.491Z,84
2023-04-01T03:17:33.831Z,86
2023-04-01T03:27:39.037Z,86
2023-04-01T03:37:44.460Z,84
2023-04-01T03:47:49.554Z,84
2023-04-01T03:57:54.891Z,84
2023-04-01T04:08:00.485Z,84
2023-04-01T04:18:05.447Z,84
2023-04-01T04:28:10.648Z,86
2023-04-01T04:38:15.509Z,84
2023-04-01T04:48:20.865Z,86
2023-04-01T04:58:26.453Z,84
2023-04-01T05:08:31.497Z,86
2023-04-01T05:18:36.697Z,86
2023-04-01T05:28:41.874Z,86
2023-04-01T05:38:47.263Z,86
2023-04-01T05:48:52.532Z,86
2023-04-01T05:58:57.972Z,86
2023-04-01T06:09:03.547Z,84
2023-04-01T06:19:08.507Z,84
2023-04-01T06:29:13.252Z,86
2023-04-01T06:39:18.413Z,86
2023-04-01T06:49:23.612Z,84
2023-04-01T06:59:28.581Z,86
2023-04-01T07:09:34.145Z,86
2023-04-01T07:19:39.322Z,86
2023-04-01T07:29:44.552Z,84
2023-04-01T07:39:49.802Z,86
2023-04-01T07:49:54.977Z,86
2023-04-01T08:00:00.568Z,86
2023-04-01T08:10:05.991Z,84
2023-04-01T08:20:11.645Z,86
2023-04-01T08:30:17.249Z,86
2023-04-01T08:40:22.333Z,86
2023-04-01T08:50:27.853Z,86
2023-04-01T09:00:32.836Z,86
2023-04-01T09:10:38.074Z,86
2023-04-01T09:20:43.233Z,88
2023-04-01T09:30:48.495Z,86
2023-04-01T09:40:53.618Z,86
2023-04-01T09:50:59.001Z,86
2023-04-01T10:01:04.174Z,86
2023-04-01T10:11:09.304Z,88
2023-04-01T10:21:15.097Z,86
2023-04-01T10:31:20.112Z,86
2023-04-01T10:41:25.588Z,86
2023-04-01T10:51:30.748Z,86
2023-04-01T11:01:35.976Z,86
2023-04-01T11:11:41.653Z,86
2023-04-01T11:21:46.724Z,86
2023-04-01T11:31:52.101Z,88
2023-04-01T11:41:57.485Z,86
2023-04-01T11:52:02.736Z,86
2023-04-01T12:02:07.982Z,84
2023-04-01T12:12:13.292Z,86
2023-04-01T12:22:18.582Z,84
2023-04-01T12:32:24.171Z,84
2023-04-01T12:42:29.775Z,86
2023-04-01T12:52:35.021Z,84
2023-04-01T13:02:40.104Z,86
2023-04-01T13:12:45.197Z,86
2023-04-01T13:22:50.338Z,86
2023-04-01T13:32:55.714Z,88
2023-04-01T13:43:01.085Z,82
2023-04-01T13:53:06.482Z,82
2023-04-01T14:03:11.675Z,76
2023-04-01T14:13:17.147Z,78
2023-04-01T14:23:22.544Z,80
2023-04-01T14:33:27.961Z,78
2023-04-01T14:43:33.094Z,78
2023-04-01T14:53:38.347Z,82
2023-04-01T15:03:43.463Z,78
2023-04-01T15:13:49.326Z,80
2023-04-01T15:23:54.365Z,82
2023-04-01T15:33:59.520Z,84
2023-04-01T15:44:04.959Z,78
2023-04-01T15:55:29.873Z,76
2023-04-01T16:05:34.382Z,80
2023-04-01T16:15:40.158Z,78
2023-04-01T16:25:45.730Z,78
2023-04-01T16:35:50.765Z,82
2023-04-01T16:45:56.303Z,84
2023-04-01T16:56:01.803Z,80
2023-04-01T17:06:07.349Z,76
2023-04-01T17:16:12.493Z,80
2023-04-01T17:26:17.945Z,78
2023-04-01T17:36:22.743Z,78
2023-04-01T17:46:28.049Z,82
2023-04-01T17:56:33.761Z,78
2023-04-01T18:06:39.534Z,78
2023-04-01T18:16:44.874Z,76
2023-04-01T18:26:50.422Z,76
2023-04-01T18:36:55.643Z,78
2023-04-01T18:47:00.913Z,84
2023-04-01T18:57:06.235Z,78
2023-04-01T19:07:11.845Z,72
2023-04-01T19:17:17.337Z,78
2023-04-01T19:27:23.047Z,78
2023-04-01T19:37:29.039Z,82
2023-04-01T19:47:34.492Z,78
2023-04-01T19:57:40.044Z,92
2023-04-01T20:07:45.238Z,78
2023-04-01T20:17:50.404Z,80
2023-04-01T20:27:55.773Z,78
2023-04-01T20:38:01.156Z,82
2023-04-01T20:48:06.433Z,78
2023-04-01T20:58:11.780Z,74
2023-04-01T21:08:17.328Z,76
2023-04-01T21:18:22.782Z,80
2023-04-01T21:28:27.751Z,78
2023-04-01T21:38:33.115Z,76
2023-04-01T21:48:38.484Z,76
2023-04-01T21:58:44.031Z,76
2023-04-01T22:08:49.635Z,78
2023-04-01T22:18:54.854Z,76
2023-04-01T22:29:00.321Z,84
2023-04-01T22:39:05.402Z,82
2023-04-01T22:49:10.215Z,80
2023-04-01T23:00:34.984Z,82
2023-04-01T23:10:39.551Z,84
2023-04-01T23:20:44.888Z,80
2023-04-01T23:30:50.449Z,80
2023-04-01T23:40:56.051Z,86
2023-04-01T23:51:01.302Z,82
